sensor_id;sensor_type;location;lat;lon;timestamp;P1;durP1;ratioP1;P2;durP2;ratioP2
51194;SDS011;37259;49.972;19.850;2023-04-15T00:00:57;3.6;;;1.9;;
51194;SDS011;37259;49.972;19.850;2023-04-15T00:01:57;3.6;;;1.9;;
51194;SDS011;37259;49.972;19.850;2023-04-15T00:02:57;3.6;;;1.9;;
51194;SDS011;37259;49.972;19.850;2023-04-15T00:03:57;3.6;;;1.9;;
51194;SDS011;37259;49.972;19.850;2023-04-15T00:04:57;3.6;;;1.9;;
51194;SDS011;37259;49.972;19.850;2023-04-15T00:05:57;3.6;;;1.9;;
51194;SDS011;37259;49.972;19.850;2023-04-15T00:06:57;3.6;;;1.9;;
51194;SDS011;37259;49.972;19.850;2023-04-15T00:07:57;3.6;;;1.9;;
51194;SDS011;37259;49.972;19.850;2023-04-15T00:08:57;3.6;;;1.9;;
51194;SDS011;37259;49.972;19.850;2023-04-15T00:09:57;3.6;;;1.9;;
51194;SDS011;37259;49.972;19.850;2023-04-15T00:10:57;3.6;;;1.9;;
51194;SDS011;37259;49.972;19.850;2023-04-15T00:11:57;3.6;;;1.9;;
51194;SDS011;37259;49.972;19.850;2023-04-15T00:12:57;3.1;;;1.7;;
51194;SDS011;37259;49.972;19.850;2023-04-15T00:13:57;3.1;;;1.7;;
51194;SDS011;37259;49.972;19.850;2023-04-15T00:14:57;3.1;;;1.7;;
51194;SDS011;37259;49.972;19.850;2023-04-15T00:15:57;3.1;;;1.7;;
51194;SDS011;37259;49.972;19.850;2023-04-15T00:16:57;3.1;;;1.7;;
51194;SDS011;37259;49.972;19.850;2023-04-15T00:17:57;3.1;;;1.7;;
51194;SDS011;37259;49.972;19.850;2023-04-15T00:18:57;3.1;;;1.7;;
51194;SDS011;37259;49.972;19.850;2023-04-15T00:19:57;3.1;;;1.7;;
51194;SDS011;37259;49.972;19.850;2023-04-15T00:20:57;3.1;;;1.7;;
51194;SDS011;37259;49.972;19.850;2023-04-15T00:21:57;3.1;;;1.7;;
51194;SDS011;37259;49.972;19.850;2023-04-15T00:22:57;3.1;;;1.7;;
51194;SDS011;37259;49.972;19.850;2023-04-15T00:23:57;3.1;;;1.7;;
51194;SDS011;37259;49.972;19.850;2023-04-15T00:24:57;3.1;;;1.7;;
51194;SDS011;37259;49.972;19.850;2023-04-15T00:25:57;3.1;;;1.7;;
51194;SDS011;37259;49.972;19.850;2023-04-15T00:26:57;3.1;;;1.7;;
51194;SDS011;37259;49.972;19.850;2023-04-15T00:27:57;3.1;;;1.7;;
51194;SDS011;37259;49.972;19.850;2023-04-15T00:28:57;3.1;;;1.7;;
51194;SDS011;37259;49.972;19.850;2023-04-15T00:29:57;3.1;;;1.7;;
51194;SDS011;37259;49.972;19.850;2023-04-15T00:30:57;3.1;;;1.7;;
51194;SDS011;37259;49.972;19.850;2023-04-15T00:31:57;3.1;;;1.7;;
51194;SDS011;37259;49.972;19.850;2023-04-15T00:32:57;3.1;;;1.7;;
51194;SDS011;37259;49.972;19.850;2023-04-15T00:33:57;3.1;;;1.7;;
51194;SDS011;37259;49.972;19.850;2023-04-15T00:34:57;3.1;;;1.7;;
51194;SDS011;37259;49.972;19.850;2023-04-15T00:35:57;3.1;;;1.7;;
51194;SDS011;37259;49.972;19.850;2023-04-15T00:36:57;3.1;;;1.7;;
51194;SDS011;37259;49.972;19.850;2023-04-15T00:37:57;3.1;;;1.7;;
51194;SDS011;37259;49.972;19.850;2023-04-15T00:38:57;3.1;;;1.7;;
51194;SDS011;37259;49.972;19.850;2023-04-15T00:39:57;3.1;;;1.7;;
51194;SDS011;37259;49.972;19.850;2023-04-15T00:40:57;3.1;;;1.7;;
51194;SDS011;37259;49.972;19.850;2023-04-15T00:41:57;3.1;;;1.7;;
51194;SDS011;37259;49.972;19.850;2023-04-15T00:42:57;2.4;;;1.2;;
51194;SDS011;37259;49.972;19.850;2023-04-15T00:43:57;2.4;;;1.2;;
51194;SDS011;37259;49.972;19.850;2023-04-15T00:44:57;2.4;;;1.2;;
51194;SDS011;37259;49.972;19.850;2023-04-15T00:45:57;2.4;;;1.2;;
51194;SDS011;37259;49.972;19.850;2023-04-15T00:47:00;2.4;;;1.2;;
51194;SDS011;37259;49.972;19.850;2023-04-15T00:47:57;2.4;;;1.2;;
51194;SDS011;37259;49.972;19.850;2023-04-15T00:48:57;2.4;;;1.2;;
51194;SDS011;37259;49.972;19.850;2023-04-15T00:49:57;2.4;;;1.2;;
51194;SDS011;37259;49.972;19.850;2023-04-15T00:50:57;2.4;;;1.2;;
51194;SDS011;37259;49.972;19.850;2023-04-15T00:51:57;2.4;;;1.2;;
51194;SDS011;37259;49.972;19.850;2023-04-15T00:52:57;2.4;;;1.2;;
51194;SDS011;37259;49.972;19.850;2023-04-15T00:53:57;2.4;;;1.2;;
51194;SDS011;37259;49.972;19.850;2023-04-15T00:54:57;2.4;;;1.2;;
51194;SDS011;37259;49.972;19.850;2023-04-15T00:55:57;2.4;;;1.2;;
51194;SDS011;37259;49.972;19.850;2023-04-15T00:56:57;2.4;;;1.2;;
51194;SDS011;37259;49.972;19.850;2023-04-15T00:57:57;2.4;;;1.2;;
51194;SDS011;37259;49.972;19.850;2023-04-15T00:58:57;2.4;;;1.2;;
51194;SDS011;37259;49.972;19.850;2023-04-15T00:59:57;2.4;;;1.2;;
51194;SDS011;37259;49.972;19.850;2023-04-15T01:00:57;2.4;;;1.2;;
51194;SDS011;37259;49.972;19.850;2023-04-15T01:01:57;2.4;;;1.2;;
51194;SDS011;37259;49.972;19.850;2023-04-15T01:02:57;2.4;;;1.2;;
51194;SDS011;37259;49.972;19.850;2023-04-15T01:03:57;2.4;;;1.2;;
51194;SDS011;37259;49.972;19.850;2023-04-15T01:04:57;2.4;;;1.2;;
51194;SDS011;37259;49.972;19.850;2023-04-15T01:05:57;2.4;;;1.2;;
51194;SDS011;37259;49.972;19.850;2023-04-15T01:06:57;2.4;;;1.2;;
51194;SDS011;37259;49.972;19.850;2023-04-15T01:07:57;2.4;;;1.2;;
51194;SDS011;37259;49.972;19.850;2023-04-15T01:08:57;2.4;;;1.2;;
51194;SDS011;37259;49.972;19.850;2023-04-15T01:09:57;2.4;;;1.2;;
51194;SDS011;37259;49.972;19.850;2023-04-15T01:10:57;2.4;;;1.2;;
51194;SDS011;37259;49.972;19.850;2023-04-15T01:11:57;2.4;;;1.2;;
51194;SDS011;37259;49.972;19.850;2023-04-15T01:12:57;3.3;;;1.1;;
51194;SDS011;37259;49.972;19.850;2023-04-15T01:13:57;3.3;;;1.1;;
51194;SDS011;37259;49.972;19.850;2023-04-15T01:14:57;3.3;;;1.1;;
51194;SDS011;37259;49.972;19.850;2023-04-15T01:15:57;3.3;;;1.1;;
51194;SDS011;37259;49.972;19.850;2023-04-15T01:16:57;3.3;;;1.1;;
51194;SDS011;37259;49.972;19.850;2023-04-15T01:17:57;3.3;;;1.1;;
51194;SDS011;37259;49.972;19.850;2023-04-15T01:18:57;3.3;;;1.1;;
51194;SDS011;37259;49.972;19.850;2023-04-15T01:19:57;3.3;;;1.1;;
51194;SDS011;37259;49.972;19.850;2023-04-15T01:20:57;3.3;;;1.1;;
51194;SDS011;37259;49.972;19.850;2023-04-15T01:21:57;3.3;;;1.1;;
51194;SDS011;37259;49.972;19.850;2023-04-15T01:22:57;3.3;;;1.1;;
51194;SDS011;37259;49.972;19.850;2023-04-15T01:23:57;3.3;;;1.1;;
51194;SDS011;37259;49.972;19.850;2023-04-15T01:24:59;3.3;;;1.1;;
51194;SDS011;37259;49.972;19.850;2023-04-15T01:25:57;3.3;;;1.1;;
51194;SDS011;37259;49.972;19.850;2023-04-15T01:26:57;3.3;;;1.1;;
51194;SDS011;37259;49.972;19.850;2023-04-15T01:27:57;3.3;;;1.1;;
51194;SDS011;37259;49.972;19.850;2023-04-15T01:28:57;3.3;;;1.1;;
51194;SDS011;37259;49.972;19.850;2023-04-15T01:29:57;3.3;;;1.1;;
51194;SDS011;37259;49.972;19.850;2023-04-15T01:31:13;3.3;;;1.1;;
51194;SDS011;37259;49.972;19.850;2023-04-15T01:31:57;3.3;;;1.1;;
51194;SDS011;37259;49.972;19.850;2023-04-15T01:32:57;3.3;;;1.1;;
51194;SDS011;37259;49.972;19.850;2023-04-15T01:33:57;3.3;;;1.1;;
51194;SDS011;37259;49.972;19.850;2023-04-15T01:34:57;3.3;;;1.1;;
51194;SDS011;37259;49.972;19.850;2023-04-15T01:35:57;3.3;;;1.1;;
51194;SDS011;37259;49.972;19.850;2023-04-15T01:36:57;3.3;;;1.1;;
51194;SDS011;37259;49.972;19.850;2023-04-15T01:37:58;3.3;;;1.1;;
51194;SDS011;37259;49.972;19.850;2023-04-15T01:38:57;3.3;;;1.1;;
51194;SDS011;37259;49.972;19.850;2023-04-15T01:39:57;3.3;;;1.1;;
51194;SDS011;37259;49.972;19.850;2023-04-15T01:40:57;3.3;;;1.1;;
51194;SDS011;37259;49.972;19.850;2023-04-15T01:41:57;3.3;;;1.1;;
51194;SDS011;37259;49.972;19.850;2023-04-15T01:42:57;2.5;;;1.1;;
51194;SDS011;37259;49.972;19.850;2023-04-15T01:43:57;2.5;;;1.1;;
51194;SDS011;37259;49.972;19.850;2023-04-15T01:44:57;2.5;;;1.1;;
51194;SDS011;37259;49.972;19.850;2023-04-15T01:45:57;2.5;;;1.1;;
51194;SDS011;37259;49.972;19.850;2023-04-15T01:46:57;2.5;;;1.1;;
51194;SDS011;37259;49.972;19.850;2023-04-15T01:47:57;2.5;;;1.1;;
51194;SDS011;37259;49.972;19.850;2023-04-15T01:48:57;2.5;;;1.1;;
51194;SDS011;37259;49.972;19.850;2023-04-15T01:49:57;2.5;;;1.1;;
51194;SDS011;37259;49.972;19.850;2023-04-15T01:50:57;2.5;;;1.1;;
51194;SDS011;37259;49.972;19.850;2023-04-15T01:51:57;2.5;;;1.1;;
51194;SDS011;37259;49.972;19.850;2023-04-15T01:52:57;2.5;;;1.1;;
51194;SDS011;37259;49.972;19.850;2023-04-15T01:53:57;2.5;;;1.1;;
51194;SDS011;37259;49.972;19.850;2023-04-15T01:54:57;2.5;;;1.1;;
51194;SDS011;37259;49.972;19.850;2023-04-15T01:55:57;2.5;;;1.1;;
51194;SDS011;37259;49.972;19.850;2023-04-15T01:56:57;2.5;;;1.1;;
51194;SDS011;37259;49.972;19.850;2023-04-15T01:57:57;2.5;;;1.1;;
51194;SDS011;37259;49.972;19.850;2023-04-15T01:58:57;2.5;;;1.1;;
51194;SDS011;37259;49.972;19.850;2023-04-15T01:59:57;2.5;;;1.1;;
51194;SDS011;37259;49.972;19.850;2023-04-15T02:00:57;2.5;;;1.1;;
51194;SDS011;37259;49.972;19.850;2023-04-15T02:01:57;2.5;;;1.1;;
51194;SDS011;37259;49.972;19.850;2023-04-15T02:02:57;2.5;;;1.1;;
51194;SDS011;37259;49.972;19.850;2023-04-15T02:03:57;2.5;;;1.1;;
51194;SDS011;37259;49.972;19.850;2023-04-15T02:04:57;2.5;;;1.1;;
51194;SDS011;37259;49.972;19.850;2023-04-15T02:05:57;2.5;;;1.1;;
51194;SDS011;37259;49.972;19.850;2023-04-15T02:06:57;2.5;;;1.1;;
51194;SDS011;37259;49.972;19.850;2023-04-15T02:07:57;2.5;;;1.1;;
51194;SDS011;37259;49.972;19.850;2023-04-15T02:08:57;2.5;;;1.1;;
51194;SDS011;37259;49.972;19.850;2023-04-15T02:09:57;2.5;;;1.1;;
51194;SDS011;37259;49.972;19.850;2023-04-15T02:10:57;2.5;;;1.1;;
51194;SDS011;37259;49.972;19.850;2023-04-15T02:11:57;2.5;;;1.1;;
51194;SDS011;37259;49.972;19.850;2023-04-15T02:12:57;2.4;;;1.3;;
51194;SDS011;37259;49.972;19.850;2023-04-15T02:13:57;2.4;;;1.3;;
51194;SDS011;37259;49.972;19.850;2023-04-15T02:14:57;2.4;;;1.3;;
51194;SDS011;37259;49.972;19.850;2023-04-15T02:15:57;2.4;;;1.3;;
51194;SDS011;37259;49.972;19.850;2023-04-15T02:16:57;2.4;;;1.3;;
51194;SDS011;37259;49.972;19.850;2023-04-15T02:17:57;2.4;;;1.3;;
51194;SDS011;37259;49.972;19.850;2023-04-15T02:18:58;2.4;;;1.3;;
51194;SDS011;37259;49.972;19.850;2023-04-15T02:19:57;2.4;;;1.3;;
51194;SDS011;37259;49.972;19.850;2023-04-15T02:20:57;2.4;;;1.3;;
51194;SDS011;37259;49.972;19.850;2023-04-15T02:21:57;2.4;;;1.3;;
51194;SDS011;37259;49.972;19.850;2023-04-15T02:22:57;2.4;;;1.3;;
51194;SDS011;37259;49.972;19.850;2023-04-15T02:23:57;2.4;;;1.3;;
51194;SDS011;37259;49.972;19.850;2023-04-15T02:24:57;2.4;;;1.3;;
51194;SDS011;37259;49.972;19.850;2023-04-15T02:25:57;2.4;;;1.3;;
51194;SDS011;37259;49.972;19.850;2023-04-15T02:26:57;2.4;;;1.3;;
51194;SDS011;37259;49.972;19.850;2023-04-15T02:27:57;2.4;;;1.3;;
51194;SDS011;37259;49.972;19.850;2023-04-15T02:28:57;2.4;;;1.3;;
51194;SDS011;37259;49.972;19.850;2023-04-15T02:29:57;2.4;;;1.3;;
51194;SDS011;37259;49.972;19.850;2023-04-15T02:30:57;2.4;;;1.3;;
51194;SDS011;37259;49.972;19.850;2023-04-15T02:31:57;2.4;;;1.3;;
51194;SDS011;37259;49.972;19.850;2023-04-15T02:32:57;2.4;;;1.3;;
51194;SDS011;37259;49.972;19.850;2023-04-15T02:33:57;2.4;;;1.3;;
51194;SDS011;37259;49.972;19.850;2023-04-15T02:35:00;2.4;;;1.3;;
51194;SDS011;37259;49.972;19.850;2023-04-15T02:35:57;2.4;;;1.3;;
51194;SDS011;37259;49.972;19.850;2023-04-15T02:36:57;2.4;;;1.3;;
51194;SDS011;37259;49.972;19.850;2023-04-15T02:37:57;2.4;;;1.3;;
51194;SDS011;37259;49.972;19.850;2023-04-15T02:38:57;2.4;;;1.3;;
51194;SDS011;37259;49.972;19.850;2023-04-15T02:39:57;2.4;;;1.3;;
51194;SDS011;37259;49.972;19.850;2023-04-15T02:40:57;2.4;;;1.3;;
51194;SDS011;37259;49.972;19.850;2023-04-15T02:41:57;2.4;;;1.3;;
51194;SDS011;37259;49.972;19.850;2023-04-15T02:42:57;2.3;;;1;;
51194;SDS011;37259;49.972;19.850;2023-04-15T02:43:57;2.3;;;1;;
51194;SDS011;37259;49.972;19.850;2023-04-15T02:44:57;2.3;;;1;;
51194;SDS011;37259;49.972;19.850;2023-04-15T02:45:57;2.3;;;1;;
51194;SDS011;37259;49.972;19.850;2023-04-15T02:46:57;2.3;;;1;;
51194;SDS011;37259;49.972;19.850;2023-04-15T02:47:57;2.3;;;1;;
51194;SDS011;37259;49.972;19.850;2023-04-15T02:48:57;2.3;;;1;;
51194;SDS011;37259;49.972;19.850;2023-04-15T02:49:57;2.3;;;1;;
51194;SDS011;37259;49.972;19.850;2023-04-15T02:51:13;2.3;;;1;;
51194;SDS011;37259;49.972;19.850;2023-04-15T02:51:57;2.3;;;1;;
51194;SDS011;37259;49.972;19.850;2023-04-15T02:52:57;2.3;;;1;;
51194;SDS011;37259;49.972;19.850;2023-04-15T02:53:57;2.3;;;1;;
51194;SDS011;37259;49.972;19.850;2023-04-15T02:54:57;2.3;;;1;;
51194;SDS011;37259;49.972;19.850;2023-04-15T02:55:57;2.3;;;1;;
51194;SDS011;37259;49.972;19.850;2023-04-15T02:56:57;2.3;;;1;;
51194;SDS011;37259;49.972;19.850;2023-04-15T02:57:57;2.3;;;1;;
51194;SDS011;37259;49.972;19.850;2023-04-15T02:58:57;2.3;;;1;;
51194;SDS011;37259;49.972;19.850;2023-04-15T02:59:57;2.3;;;1;;
51194;SDS011;37259;49.972;19.850;2023-04-15T03:00:57;2.3;;;1;;
51194;SDS011;37259;49.972;19.850;2023-04-15T03:01:57;2.3;;;1;;
51194;SDS011;37259;49.972;19.850;2023-04-15T03:02:57;2.3;;;1;;
51194;SDS011;37259;49.972;19.850;2023-04-15T03:03:57;2.3;;;1;;
51194;SDS011;37259;49.972;19.850;2023-04-15T03:04:57;2.3;;;1;;
51194;SDS011;37259;49.972;19.850;2023-04-15T03:05:57;2.3;;;1;;
51194;SDS011;37259;49.972;19.850;2023-04-15T03:06:57;2.3;;;1;;
51194;SDS011;37259;49.972;19.850;2023-04-15T03:07:57;2.3;;;1;;
51194;SDS011;37259;49.972;19.850;2023-04-15T03:08:57;2.3;;;1;;
51194;SDS011;37259;49.972;19.850;2023-04-15T03:09:57;2.3;;;1;;
51194;SDS011;37259;49.972;19.850;2023-04-15T03:10:57;2.3;;;1;;
51194;SDS011;37259;49.972;19.850;2023-04-15T03:11:57;2.7;;;1.2;;
51194;SDS011;37259;49.972;19.850;2023-04-15T03:12:57;2.7;;;1.2;;
51194;SDS011;37259;49.972;19.850;2023-04-15T03:13:57;2.7;;;1.2;;
51194;SDS011;37259;49.972;19.850;2023-04-15T03:14:57;2.7;;;1.2;;
51194;SDS011;37259;49.972;19.850;2023-04-15T03:15:57;2.7;;;1.2;;
51194;SDS011;37259;49.972;19.850;2023-04-15T03:16:57;2.7;;;1.2;;
51194;SDS011;37259;49.972;19.850;2023-04-15T03:17:57;2.7;;;1.2;;
51194;SDS011;37259;49.972;19.850;2023-04-15T03:18:57;2.7;;;1.2;;
51194;SDS011;37259;49.972;19.850;2023-04-15T03:19:57;2.7;;;1.2;;
51194;SDS011;37259;49.972;19.850;2023-04-15T03:20:57;2.7;;;1.2;;
51194;SDS011;37259;49.972;19.850;2023-04-15T03:21:57;2.7;;;1.2;;
51194;SDS011;37259;49.972;19.850;2023-04-15T03:22:57;2.7;;;1.2;;
51194;SDS011;37259;49.972;19.850;2023-04-15T03:23:57;2.7;;;1.2;;
51194;SDS011;37259;49.972;19.850;2023-04-15T03:24:57;2.7;;;1.2;;
51194;SDS011;37259;49.972;19.850;2023-04-15T03:26:00;2.7;;;1.2;;
51194;SDS011;37259;49.972;19.850;2023-04-15T03:26:57;2.7;;;1.2;;
51194;SDS011;37259;49.972;19.850;2023-04-15T03:27:58;2.7;;;1.2;;
51194;SDS011;37259;49.972;19.850;2023-04-15T03:28:57;2.7;;;1.2;;
51194;SDS011;37259;49.972;19.850;2023-04-15T03:29:57;2.7;;;1.2;;
51194;SDS011;37259;49.972;19.850;2023-04-15T03:30:57;2.7;;;1.2;;
51194;SDS011;37259;49.972;19.850;2023-04-15T03:31:57;2.7;;;1.2;;
51194;SDS011;37259;49.972;19.850;2023-04-15T03:32:57;2.7;;;1.2;;
51194;SDS011;37259;49.972;19.850;2023-04-15T03:33:57;2.7;;;1.2;;
51194;SDS011;37259;49.972;19.850;2023-04-15T03:34:57;2.7;;;1.2;;
51194;SDS011;37259;49.972;19.850;2023-04-15T03:35:57;2.7;;;1.2;;
51194;SDS011;37259;49.972;19.850;2023-04-15T03:36:57;2.7;;;1.2;;
51194;SDS011;37259;49.972;19.850;2023-04-15T03:37:57;2.7;;;1.2;;
51194;SDS011;37259;49.972;19.850;2023-04-15T03:38:57;2.7;;;1.2;;
51194;SDS011;37259;49.972;19.850;2023-04-15T03:39:57;2.7;;;1.2;;
51194;SDS011;37259;49.972;19.850;2023-04-15T03:40:57;2.7;;;1.2;;
51194;SDS011;37259;49.972;19.850;2023-04-15T03:41:57;3;;;1.3;;
51194;SDS011;37259;49.972;19.850;2023-04-15T03:42:57;3;;;1.3;;
51194;SDS011;37259;49.972;19.850;2023-04-15T03:43:57;3;;;1.3;;
51194;SDS011;37259;49.972;19.850;2023-04-15T03:44:57;3;;;1.3;;
51194;SDS011;37259;49.972;19.850;2023-04-15T03:45:57;3;;;1.3;;
51194;SDS011;37259;49.972;19.850;2023-04-15T03:46:57;3;;;1.3;;
51194;SDS011;37259;49.972;19.850;2023-04-15T03:47:57;3;;;1.3;;
51194;SDS011;37259;49.972;19.850;2023-04-15T03:48:57;3;;;1.3;;
51194;SDS011;37259;49.972;19.850;2023-04-15T03:49:57;3;;;1.3;;
51194;SDS011;37259;49.972;19.850;2023-04-15T03:50:57;3;;;1.3;;
51194;SDS011;37259;49.972;19.850;2023-04-15T03:51:57;3;;;1.3;;
51194;SDS011;37259;49.972;19.850;2023-04-15T03:52:57;3;;;1.3;;
51194;SDS011;37259;49.972;19.850;2023-04-15T03:53:57;3;;;1.3;;
51194;SDS011;37259;49.972;19.850;2023-04-15T03:54:57;3;;;1.3;;
51194;SDS011;37259;49.972;19.850;2023-04-15T03:55:57;3;;;1.3;;
51194;SDS011;37259;49.972;19.850;2023-04-15T03:56:57;3;;;1.3;;
51194;SDS011;37259;49.972;19.850;2023-04-15T03:57:57;3;;;1.3;;
51194;SDS011;37259;49.972;19.850;2023-04-15T03:58:57;3;;;1.3;;
51194;SDS011;37259;49.972;19.850;2023-04-15T03:59:57;3;;;1.3;;
51194;SDS011;37259;49.972;19.850;2023-04-15T04:00:57;3;;;1.3;;
51194;SDS011;37259;49.972;19.850;2023-04-15T04:01:57;3;;;1.3;;
51194;SDS011;37259;49.972;19.850;2023-04-15T04:02:57;3;;;1.3;;
51194;SDS011;37259;49.972;19.850;2023-04-15T04:03:57;3;;;1.3;;
51194;SDS011;37259;49.972;19.850;2023-04-15T04:04:57;3;;;1.3;;
51194;SDS011;37259;49.972;19.850;2023-04-15T04:05:57;3;;;1.3;;
51194;SDS011;37259;49.972;19.850;2023-04-15T04:06:57;3;;;1.3;;
51194;SDS011;37259;49.972;19.850;2023-04-15T04:07:57;3;;;1.3;;
51194;SDS011;37259;49.972;19.850;2023-04-15T04:08:57;3;;;1.3;;
51194;SDS011;37259;49.972;19.850;2023-04-15T04:09:57;3;;;1.3;;
51194;SDS011;37259;49.972;19.850;2023-04-15T04:10:57;3;;;1.3;;
51194;SDS011;37259;49.972;19.850;2023-04-15T04:11:57;5.1;;;2.2;;
51194;SDS011;37259;49.972;19.850;2023-04-15T04:12:57;5.1;;;2.2;;
51194;SDS011;37259;49.972;19.850;2023-04-15T04:13:57;5.1;;;2.2;;
51194;SDS011;37259;49.972;19.850;2023-04-15T04:14:57;5.1;;;2.2;;
51194;SDS011;37259;49.972;19.850;2023-04-15T04:15:57;5.1;;;2.2;;
51194;SDS011;37259;49.972;19.850;2023-04-15T04:16:57;5.1;;;2.2;;
51194;SDS011;37259;49.972;19.850;2023-04-15T04:17:57;5.1;;;2.2;;
51194;SDS011;37259;49.972;19.850;2023-04-15T04:18:57;5.1;;;2.2;;
51194;SDS011;37259;49.972;19.850;2023-04-15T04:19:57;5.1;;;2.2;;
51194;SDS011;37259;49.972;19.850;2023-04-15T04:20:57;5.1;;;2.2;;
51194;SDS011;37259;49.972;19.850;2023-04-15T04:21:57;5.1;;;2.2;;
51194;SDS011;37259;49.972;19.850;2023-04-15T04:22:57;5.1;;;2.2;;
51194;SDS011;37259;49.972;19.850;2023-04-15T04:23:57;5.1;;;2.2;;
51194;SDS011;37259;49.972;19.850;2023-04-15T04:24:57;5.1;;;2.2;;
51194;SDS011;37259;49.972;19.850;2023-04-15T04:25:57;5.1;;;2.2;;
51194;SDS011;37259;49.972;19.850;2023-04-15T04:26:57;5.1;;;2.2;;
51194;SDS011;37259;49.972;19.850;2023-04-15T04:27:57;5.1;;;2.2;;
51194;SDS011;37259;49.972;19.850;2023-04-15T04:28:57;5.1;;;2.2;;
51194;SDS011;37259;49.972;19.850;2023-04-15T04:29:57;5.1;;;2.2;;
51194;SDS011;37259;49.972;19.850;2023-04-15T04:30:57;5.1;;;2.2;;
51194;SDS011;37259;49.972;19.850;2023-04-15T04:31:57;5.1;;;2.2;;
51194;SDS011;37259;49.972;19.850;2023-04-15T04:32:57;5.1;;;2.2;;
51194;SDS011;37259;49.972;19.850;2023-04-15T04:33:57;5.1;;;2.2;;
51194;SDS011;37259;49.972;19.850;2023-04-15T04:34:57;5.1;;;2.2;;
51194;SDS011;37259;49.972;19.850;2023-04-15T04:35:57;5.1;;;2.2;;
51194;SDS011;37259;49.972;19.850;2023-04-15T04:36:57;5.1;;;2.2;;
51194;SDS011;37259;49.972;19.850;2023-04-15T04:37:57;5.1;;;2.2;;
51194;SDS011;37259;49.972;19.850;2023-04-15T04:38:57;5.1;;;2.2;;
51194;SDS011;37259;49.972;19.850;2023-04-15T04:39:57;5.1;;;2.2;;
51194;SDS011;37259;49.972;19.850;2023-04-15T04:40:57;5.1;;;2.2;;
51194;SDS011;37259;49.972;19.850;2023-04-15T04:41:57;5.5;;;2.4;;
51194;SDS011;37259;49.972;19.850;2023-04-15T04:42:57;5.5;;;2.4;;
51194;SDS011;37259;49.972;19.850;2023-04-15T04:43:57;5.5;;;2.4;;
51194;SDS011;37259;49.972;19.850;2023-04-15T04:44:57;5.5;;;2.4;;
51194;SDS011;37259;49.972;19.850;2023-04-15T04:45:57;5.5;;;2.4;;
51194;SDS011;37259;49.972;19.850;2023-04-15T04:46:57;5.5;;;2.4;;
51194;SDS011;37259;49.972;19.850;2023-04-15T04:47:57;5.5;;;2.4;;
51194;SDS011;37259;49.972;19.850;2023-04-15T04:48:57;5.5;;;2.4;;
51194;SDS011;37259;49.972;19.850;2023-04-15T04:49:57;5.5;;;2.4;;
51194;SDS011;37259;49.972;19.850;2023-04-15T04:50:57;5.5;;;2.4;;
51194;SDS011;37259;49.972;19.850;2023-04-15T04:51:57;5.5;;;2.4;;
51194;SDS011;37259;49.972;19.850;2023-04-15T04:52:57;5.5;;;2.4;;
51194;SDS011;37259;49.972;19.850;2023-04-15T04:53:57;5.5;;;2.4;;
51194;SDS011;37259;49.972;19.850;2023-04-15T04:54:57;5.5;;;2.4;;
51194;SDS011;37259;49.972;19.850;2023-04-15T04:55:57;5.5;;;2.4;;
51194;SDS011;37259;49.972;19.850;2023-04-15T04:56:57;5.5;;;2.4;;
51194;SDS011;37259;49.972;19.850;2023-04-15T04:57:57;5.5;;;2.4;;
51194;SDS011;37259;49.972;19.850;2023-04-15T04:58:57;5.5;;;2.4;;
51194;SDS011;37259;49.972;19.850;2023-04-15T04:59:57;5.5;;;2.4;;
51194;SDS011;37259;49.972;19.850;2023-04-15T05:00:57;5.5;;;2.4;;
51194;SDS011;37259;49.972;19.850;2023-04-15T05:01:57;5.5;;;2.4;;
51194;SDS011;37259;49.972;19.850;2023-04-15T05:02:57;5.5;;;2.4;;
51194;SDS011;37259;49.972;19.850;2023-04-15T05:03:57;5.5;;;2.4;;
51194;SDS011;37259;49.972;19.850;2023-04-15T05:04:57;5.5;;;2.4;;
51194;SDS011;37259;49.972;19.850;2023-04-15T05:05:57;5.5;;;2.4;;
51194;SDS011;37259;49.972;19.850;2023-04-15T05:06:57;5.5;;;2.4;;
51194;SDS011;37259;49.972;19.850;2023-04-15T05:07:57;5.5;;;2.4;;
51194;SDS011;37259;49.972;19.850;2023-04-15T05:08:57;5.5;;;2.4;;
51194;SDS011;37259;49.972;19.850;2023-04-15T05:09:57;5.5;;;2.4;;
51194;SDS011;37259;49.972;19.850;2023-04-15T05:10:57;5.5;;;2.4;;
51194;SDS011;37259;49.972;19.850;2023-04-15T05:11:57;5.5;;;2.5;;
51194;SDS011;37259;49.972;19.850;2023-04-15T05:12:57;5.5;;;2.5;;
51194;SDS011;37259;49.972;19.850;2023-04-15T05:13:57;5.5;;;2.5;;
51194;SDS011;37259;49.972;19.850;2023-04-15T05:14:57;5.5;;;2.5;;
51194;SDS011;37259;49.972;19.850;2023-04-15T05:15:57;5.5;;;2.5;;
51194;SDS011;37259;49.972;19.850;2023-04-15T05:16:57;5.5;;;2.5;;
51194;SDS011;37259;49.972;19.850;2023-04-15T05:17:57;5.5;;;2.5;;
51194;SDS011;37259;49.972;19.850;2023-04-15T05:18:57;5.5;;;2.5;;
51194;SDS011;37259;49.972;19.850;2023-04-15T05:19:57;5.5;;;2.5;;
51194;SDS011;37259;49.972;19.850;2023-04-15T05:20:57;5.5;;;2.5;;
51194;SDS011;37259;49.972;19.850;2023-04-15T05:21:57;5.5;;;2.5;;
51194;SDS011;37259;49.972;19.850;2023-04-15T05:22:57;5.5;;;2.5;;
51194;SDS011;37259;49.972;19.850;2023-04-15T05:23:57;5.5;;;2.5;;
51194;SDS011;37259;49.972;19.850;2023-04-15T05:31:57;4.9;;;2.7;;
51194;SDS011;37259;49.972;19.850;2023-04-15T05:32:57;4.9;;;2.7;;
51194;SDS011;37259;49.972;19.850;2023-04-15T05:33:57;4.9;;;2.7;;
51194;SDS011;37259;49.972;19.850;2023-04-15T05:34:57;4.9;;;2.7;;
51194;SDS011;37259;49.972;19.850;2023-04-15T05:35:57;4.9;;;2.7;;
51194;SDS011;37259;49.972;19.850;2023-04-15T05:36:57;4.9;;;2.7;;
51194;SDS011;37259;49.972;19.850;2023-04-15T05:37:57;4.9;;;2.7;;
51194;SDS011;37259;49.972;19.850;2023-04-15T05:38:57;4.9;;;2.7;;
51194;SDS011;37259;49.972;19.850;2023-04-15T05:39:57;4.9;;;2.7;;
51194;SDS011;37259;49.972;19.850;2023-04-15T05:40:57;4.9;;;2.7;;
51194;SDS011;37259;49.972;19.850;2023-04-15T05:41:57;4.9;;;2.7;;
51194;SDS011;37259;49.972;19.850;2023-04-15T05:42:57;4.9;;;2.7;;
51194;SDS011;37259;49.972;19.850;2023-04-15T05:43:57;4.9;;;2.7;;
51194;SDS011;37259;49.972;19.850;2023-04-15T05:44:57;4.9;;;2.7;;
51194;SDS011;37259;49.972;19.850;2023-04-15T05:45:57;4.9;;;2.7;;
51194;SDS011;37259;49.972;19.850;2023-04-15T05:46:57;4.9;;;2.7;;
51194;SDS011;37259;49.972;19.850;2023-04-15T05:47:57;4.9;;;2.7;;
51194;SDS011;37259;49.972;19.850;2023-04-15T05:48:57;4.9;;;2.7;;
51194;SDS011;37259;49.972;19.850;2023-04-15T05:49:57;4.9;;;2.7;;
51194;SDS011;37259;49.972;19.850;2023-04-15T05:50:57;4.9;;;2.7;;
51194;SDS011;37259;49.972;19.850;2023-04-15T05:51:57;4.9;;;2.7;;
51194;SDS011;37259;49.972;19.850;2023-04-15T05:52:57;4.9;;;2.7;;
51194;SDS011;37259;49.972;19.850;2023-04-15T05:53:57;4.9;;;2.7;;
51194;SDS011;37259;49.972;19.850;2023-04-15T05:54:57;4.9;;;2.7;;
51194;SDS011;37259;49.972;19.850;2023-04-15T05:55:57;4.9;;;2.7;;
51194;SDS011;37259;49.972;19.850;2023-04-15T05:56:57;4.9;;;2.7;;
51194;SDS011;37259;49.972;19.850;2023-04-15T05:57:57;4.9;;;2.7;;
51194;SDS011;37259;49.972;19.850;2023-04-15T05:58:57;4.9;;;2.7;;
51194;SDS011;37259;49.972;19.850;2023-04-15T05:59:57;4.9;;;2.7;;
51194;SDS011;37259;49.972;19.850;2023-04-15T06:00:57;4.9;;;2.7;;
51194;SDS011;37259;49.972;19.850;2023-04-15T06:01:57;4.6;;;2.4;;
51194;SDS011;37259;49.972;19.850;2023-04-15T06:02:57;4.6;;;2.4;;
51194;SDS011;37259;49.972;19.850;2023-04-15T06:03:57;4.6;;;2.4;;
51194;SDS011;37259;49.972;19.850;2023-04-15T06:04:57;4.6;;;2.4;;
51194;SDS011;37259;49.972;19.850;2023-04-15T06:05:57;4.6;;;2.4;;
51194;SDS011;37259;49.972;19.850;2023-04-15T06:06:57;4.6;;;2.4;;
51194;SDS011;37259;49.972;19.850;2023-04-15T06:07:57;4.6;;;2.4;;
51194;SDS011;37259;49.972;19.850;2023-04-15T06:08:57;4.6;;;2.4;;
51194;SDS011;37259;49.972;19.850;2023-04-15T06:09:57;4.6;;;2.4;;
51194;SDS011;37259;49.972;19.850;2023-04-15T06:10:57;4.6;;;2.4;;
51194;SDS011;37259;49.972;19.850;2023-04-15T06:11:57;4.6;;;2.4;;
51194;SDS011;37259;49.972;19.850;2023-04-15T06:12:57;4.6;;;2.4;;
51194;SDS011;37259;49.972;19.850;2023-04-15T06:13:57;4.6;;;2.4;;
51194;SDS011;37259;49.972;19.850;2023-04-15T06:14:57;4.6;;;2.4;;
51194;SDS011;37259;49.972;19.850;2023-04-15T06:15:57;4.6;;;2.4;;